sensor_id;sensor_type;location;lat;lon;timestamp;pressure;altitude;pressure_sealevel;temperature;humidity
5595;BME280;1003;48.002;7.788;2022-11-14T00:01:56;100457.03;;;3.53;100.00
5595;BME280;1003;48.002;7.788;2022-11-14T00:04:36;100466.47;;;3.62;100.00
5595;BME280;1003;48.002;7.788;2022-11-14T00:07:18;100484.16;;;3.69;100.00
5595;BME280;1003;48.002;7.788;2022-11-14T00:09:47;100489.38;;;3.76;100.00
5595;BME280;1003;48.002;7.788;2022-11-14T00:12:19;100514.72;;;3.88;100.00
5595;BME280;1003;48.002;7.788;2022-11-14T00:14:52;100531.63;;;3.97;100.00
5595;BME280;1003;48.002;7.788;2022-11-14T00:17:55;100541.94;;;4.06;100.00
5595;BME280;1003;48.002;7.788;2022-11-14T00:20:26;100555.50;;;4.14;100.00
5595;BME280;1003;48.002;7.788;2022-11-14T00:22:56;100568.97;;;4.19;100.00
5595;BME280;1003;48.002;7.788;2022-11-14T00:25:28;100578.38;;;4.26;100.00
5595;BME280;1003;48.002;7.788;2022-11-14T00:28:02;100583.69;;;4.35;100.00
5595;BME280;1003;48.002;7.788;2022-11-14T00:30:52;100603.75;;;4.40;100.00
5595;BME280;1003;48.002;7.788;2022-11-14T00:33:26;100582.13;;;4.37;100.00
5595;BME280;1003;48.002;7.788;2022-11-14T00:36:13;100576.34;;;4.38;100.00
5595;BME280;1003;48.002;7.788;2022-11-14T00:38:54;100588.91;;;4.41;100.00
5595;BME280;1003;48.002;7.788;2022-11-14T00:42:03;100603.94;;;4.44;100.00
5595;BME280;1003;48.002;7.788;2022-11-14T00:44:33;100614.94;;;4.50;100.00
5595;BME280;1003;48.002;7.788;2022-11-14T00:47:17;100614.25;;;4.54;100.00
5595;BME280;1003;48.002;7.788;2022-11-14T00:49:53;100633.56;;;4.59;100.00
5595;BME280;1003;48.002;7.788;2022-11-14T00:52:31;100638.53;;;4.59;100.00
5595;BME280;1003;48.002;7.788;2022-11-14T00:55:07;100651.81;;;4.60;100.00
5595;BME280;1003;48.002;7.788;2022-11-14T00:57:54;100657.69;;;4.62;100.00
5595;BME280;1003;48.002;7.788;2022-11-14T01:00:53;100664.41;;;4.63;100.00
5595;BME280;1003;48.002;7.788;2022-11-14T01:03:27;100684.44;;;4.66;100.00
5595;BME280;1003;48.002;7.788;2022-11-14T01:06:07;100708.53;;;4.67;100.00
5595;BME280;1003;48.002;7.788;2022-11-14T01:08:39;100719.28;;;4.66;100.00
5595;BME280;1003;48.002;7.788;2022-11-14T01:11:23;100728.28;;;4.62;100.00
5595;BME280;1003;48.002;7.788;2022-11-14T01:14:22;100745.66;;;4.61;100.00
5595;BME280;1003;48.002;7.788;2022-11-14T01:17:02;100759.75;;;4.60;100.00
5595;BME280;1003;48.002;7.788;2022-11-14T01:19:39;100754.59;;;4.56;100.00
5595;BME280;1003;48.002;7.788;2022-11-14T01:22:11;100765.38;;;4.56;100.00
5595;BME280;1003;48.002;7.788;2022-11-14T01:24:39;100768.63;;;4.54;100.00
5595;BME280;1003;48.002;7.788;2022-11-14T01:27:09;100775.31;;;4.55;100.00
5595;BME280;1003;48.002;7.788;2022-11-14T01:29:38;100786.09;;;4.55;100.00
5595;BME280;1003;48.002;7.788;2022-11-14T01:32:08;100812.66;;;4.55;100.00
5595;BME280;1003;48.002;7.788;2022-11-14T01:34:39;100816.84;;;4.56;100.00
5595;BME280;1003;48.002;7.788;2022-11-14T01:37:09;100840.84;;;4.54;100.00
5595;BME280;1003;48.002;7.788;2022-11-14T01:39:39;100850.78;;;4.54;100.00
5595;BME280;1003;48.002;7.788;2022-11-14T01:42:07;100861.59;;;4.54;100.00
5595;BME280;1003;48.002;7.788;2022-11-14T01:44:59;100868.88;;;4.50;100.00
5595;BME280;1003;48.002;7.788;2022-11-14T01:47:47;100895.47;;;4.51;100.00
5595;BME280;1003;48.002;7.788;2022-11-14T01:50:21;100908.72;;;4.50;100.00
5595;BME280;1003;48.002;7.788;2022-11-14T01:56:35;100925.50;;;4.54;100.00
5595;BME280;1003;48.002;7.788;2022-11-14T01:59:12;100929.72;;;4.56;100.00
5595;BME280;1003;48.002;7.788;2022-11-14T02:01:51;100943.13;;;4.58;100.00
5595;BME280;1003;48.002;7.788;2022-11-14T02:07:31;100970.78;;;4.64;100.00
5595;BME280;1003;48.002;7.788;2022-11-14T02:13:30;100991.13;;;4.56;100.00
5595;BME280;1003;48.002;7.788;2022-11-14T02:15:57;100990.88;;;4.50;100.00
5595;BME280;1003;48.002;7.788;2022-11-14T02:18:32;101001.84;;;4.53;100.00
5595;BME280;1003;48.002;7.788;2022-11-14T02:21:50;101006.81;;;4.53;100.00
5595;BME280;1003;48.002;7.788;2022-11-14T02:26:32;100995.66;;;4.45;100.00
5595;BME280;1003;48.002;7.788;2022-11-14T02:29:24;100981.72;;;4.48;100.00
5595;BME280;1003;48.002;7.788;2022-11-14T02:35:49;100994.75;;;4.43;100.00
5595;BME280;1003;48.002;7.788;2022-11-14T02:39:11;101020.50;;;4.43;100.00
5595;BME280;1003;48.002;7.788;2022-11-14T02:42:16;101061.91;;;4.41;100.00
5595;BME280;1003;48.002;7.788;2022-11-14T02:45:17;101068.38;;;4.38;100.00
5595;BME280;1003;48.002;7.788;2022-11-14T02:47:54;101071.28;;;4.29;100.00
5595;BME280;1003;48.002;7.788;2022-11-14T02:50:26;101084.00;;;4.35;100.00
5595;BME280;1003;48.002;7.788;2022-11-14T02:52:55;101102.16;;;4.33;100.00
5595;BME280;1003;48.002;7.788;2022-11-14T02:55:25;101115.59;;;4.36;100.00
5595;BME280;1003;48.002;7.788;2022-11-14T02:58:01;101127.16;;;4.36;100.00
5595;BME280;1003;48.002;7.788;2022-11-14T03:00:34;101127.34;;;4.21;100.00
5595;BME280;1003;48.002;7.788;2022-11-14T03:03:09;101134.81;;;4.21;100.00
5595;BME280;1003;48.002;7.788;2022-11-14T03:05:37;101153.53;;;4.31;100.00
5595;BME280;1003;48.002;7.788;2022-11-14T03:08:10;101180.69;;;4.26;100.00
5595;BME280;1003;48.002;7.788;2022-11-14T03:10:41;101177.41;;;4.27;100.00
5595;BME280;1003;48.002;7.788;2022-11-14T03:13:18;101189.78;;;4.26;100.00
5595;BME280;1003;48.002;7.788;2022-11-14T03:16:03;101153.88;;;4.20;100.00
5595;BME280;1003;48.002;7.788;2022-11-14T03:18:36;101166.94;;;4.16;100.00
5595;BME280;1003;48.002;7.788;2022-11-14T03:21:06;101175.41;;;4.20;100.00
5595;BME280;1003;48.002;7.788;2022-11-14T03:23:36;101194.59;;;4.22;100.00
5595;BME280;1003;48.002;7.788;2022-11-14T03:26:14;101207.78;;;4.20;100.00
5595;BME280;1003;48.002;7.788;2022-11-14T03:28:53;101202.09;;;4.06;100.00
5595;BME280;1003;48.002;7.788;2022-11-14T03:31:21;101215.47;;;4.08;100.00
5595;BME280;1003;48.002;7.788;2022-11-14T03:33:49;101220.38;;;4.07;100.00
5595;BME280;1003;48.002;7.788;2022-11-14T03:36:19;101231.13;;;4.06;100.00
5595;BME280;1003;48.002;7.788;2022-11-14T03:38:55;101235.69;;;4.14;100.00
5595;BME280;1003;48.002;7.788;2022-11-14T03:41:30;101250.31;;;4.08;100.00
5595;BME280;1003;48.002;7.788;2022-11-14T03:44:00;101241.09;;;3.89;100.00
5595;BME280;1003;48.002;7.788;2022-11-14T03:46:34;101263.84;;;3.97;100.00
5595;BME280;1003;48.002;7.788;2022-11-14T03:49:02;101270.00;;;4.04;100.00
5595;BME280;1003;48.002;7.788;2022-11-14T03:51:31;101288.28;;;4.04;100.00
5595;BME280;1003;48.002;7.788;2022-11-14T03:53:58;101317.72;;;3.97;100.00
5595;BME280;1003;48.002;7.788;2022-11-14T03:56:29;101338.97;;;4.06;100.00
5595;BME280;1003;48.002;7.788;2022-11-14T03:59:02;101330.47;;;4.03;100.00
5595;BME280;1003;48.002;7.788;2022-11-14T04:01:52;101339.69;;;4.04;100.00
5595;BME280;1003;48.002;7.788;2022-11-14T04:04:26;101353.81;;;4.05;100.00
5595;BME280;1003;48.002;7.788;2022-11-14T04:06:53;101344.50;;;4.01;100.00
5595;BME280;1003;48.002;7.788;2022-11-14T04:09:21;101354.44;;;4.01;100.00
5595;BME280;1003;48.002;7.788;2022-11-14T04:11:52;101354.19;;;3.96;100.00
5595;BME280;1003;48.002;7.788;2022-11-14T04:14:21;101371.78;;;3.99;100.00
5595;BME280;1003;48.002;7.788;2022-11-14T04:16:49;101368.81;;;3.90;100.00
5595;BME280;1003;48.002;7.788;2022-11-14T04:19:16;101376.75;;;3.99;100.00
5595;BME280;1003;48.002;7.788;2022-11-14T04:21:46;101384.03;;;3.80;100.00
5595;BME280;1003;48.002;7.788;2022-11-14T04:24:18;101374.88;;;3.79;100.00
5595;BME280;1003;48.002;7.788;2022-11-14T04:26:46;101393.13;;;3.79;100.00
5595;BME280;1003;48.002;7.788;2022-11-14T04:29:16;101410.53;;;3.79;100.00
5595;BME280;1003;48.002;7.788;2022-11-14T04:31:49;101438.06;;;3.82;100.00
5595;BME280;1003;48.002;7.788;2022-11-14T04:34:24;101442.34;;;3.85;100.00
5595;BME280;1003;48.002;7.788;2022-11-14T04:36:56;101445.69;;;3.85;100.00
5595;BME280;1003;48.002;7.788;2022-11-14T04:39:23;101458.13;;;3.85;100.00
5595;BME280;1003;48.002;7.788;2022-11-14T04:41:58;101476.66;;;3.90;100.00
5595;BME280;1003;48.002;7.788;2022-11-14T04:44:51;101491.31;;;3.86;100.00
5595;BME280;1003;48.002;7.788;2022-11-14T04:47:33;101508.38;;;3.94;100.00
5595;BME280;1003;48.002;7.788;2022-11-14T04:52:45;101538.56;;;4.01;100.00
5595;BME280;1003;48.002;7.788;2022-11-14T04:55:13;101538.25;;;3.94;100.00
5595;BME280;1003;48.002;7.788;2022-11-14T04:57:41;101552.47;;;3.97;100.00
5595;BME280;1003;48.002;7.788;2022-11-14T05:00:31;101564.06;;;3.97;100.00
5595;BME280;1003;48.002;7.788;2022-11-14T05:03:04;101562.34;;;3.95;100.00
5595;BME280;1003;48.002;7.788;2022-11-14T05:05:41;101574.78;;;3.95;100.00
5595;BME280;1003;48.002;7.788;2022-11-14T05:08:12;101588.53;;;4.04;100.00
5595;BME280;1003;48.002;7.788;2022-11-14T05:10:42;101606.00;;;4.05;100.00
5595;BME280;1003;48.002;7.788;2022-11-14T05:13:18;101629.41;;;4.09;100.00
5595;BME280;1003;48.002;7.788;2022-11-14T05:15:53;101632.69;;;4.08;100.00
5595;BME280;1003;48.002;7.788;2022-11-14T05:18:28;101654.50;;;4.12;100.00
5595;BME280;1003;48.002;7.788;2022-11-14T05:21:04;101668.81;;;4.16;100.00
5595;BME280;1003;48.002;7.788;2022-11-14T05:23:36;101682.06;;;4.15;100.00
5595;BME280;1003;48.002;7.788;2022-11-14T05:26:08;101689.66;;;4.18;100.00
5595;BME280;1003;48.002;7.788;2022-11-14T05:28:50;101710.94;;;4.13;100.00
5595;BME280;1003;48.002;7.788;2022-11-14T05:31:24;101737.22;;;4.22;100.00
5595;BME280;1003;48.002;7.788;2022-11-14T05:34:02;101737.22;;;4.22;100.00
5595;BME280;1003;48.002;7.788;2022-11-14T05:36:34;101736.97;;;4.18;100.00
5595;BME280;1003;48.002;7.788;2022-11-14T05:39:29;101770.63;;;4.26;100.00
5595;BME280;1003;48.002;7.788;2022-11-14T05:42:07;101779.31;;;4.33;100.00
5595;BME280;1003;48.002;7.788;2022-11-14T05:44:34;101795.09;;;4.33;100.00
5595;BME280;1003;48.002;7.788;2022-11-14T05:47:17;101791.75;;;4.33;100.00
5595;BME280;1003;48.002;7.788;2022-11-14T05:49:56;101827.53;;;4.35;100.00
5595;BME280;1003;48.002;7.788;2022-11-14T05:52:30;101843.53;;;4.38;100.00
5595;BME280;1003;48.002;7.788;2022-11-14T05:54:58;101852.06;;;4.42;100.00
5595;BME280;1003;48.002;7.788;2022-11-14T05:57:25;101863.81;;;4.44;100.00
5595;BME280;1003;48.002;7.788;2022-11-14T05:59:55;101869.66;;;4.45;100.00
5595;BME280;1003;48.002;7.788;2022-11-14T06:02:32;101891.81;;;4.55;100.00
5595;BME280;1003;48.002;7.788;2022-11-14T06:05:10;101901.88;;;4.57;100.00
5595;BME280;1003;48.002;7.788;2022-11-14T06:07:41;101909.56;;;4.46;100.00
5595;BME280;1003;48.002;7.788;2022-11-14T06:10:13;101924.13;;;4.54;100.00
5595;BME280;1003;48.002;7.788;2022-11-14T06:12:43;101927.19;;;4.50;100.00
5595;BME280;1003;48.002;7.788;2022-11-14T06:15:13;101942.69;;;4.59;100.00
5595;BME280;1003;48.002;7.788;2022-11-14T06:17:50;101950.81;;;4.56;100.00
5595;BME280;1003;48.002;7.788;2022-11-14T06:20:18;101954.44;;;4.61;100.00
5595;BME280;1003;48.002;7.788;2022-11-14T06:22:49;101946.34;;;4.51;100.00
5595;BME280;1003;48.002;7.788;2022-11-14T06:25:20;101960.97;;;4.59;100.00
5595;BME280;1003;48.002;7.788;2022-11-14T06:27:50;101959.34;;;4.60;100.00
5595;BME280;1003;48.002;7.788;2022-11-14T06:30:31;101960.84;;;4.71;100.00
5595;BME280;1003;48.002;7.788;2022-11-14T06:33:00;101967.75;;;4.62;100.00
5595;BME280;1003;48.002;7.788;2022-11-14T06:35:27;101966.59;;;4.70;100.00
5595;BME280;1003;48.002;7.788;2022-11-14T06:38:01;101969.44;;;4.76;100.00
5595;BME280;1003;48.002;7.788;2022-11-14T06:40:46;101981.69;;;4.73;100.00
5595;BME280;1003;48.002;7.788;2022-11-14T06:43:46;101993.06;;;4.83;100.00
5595;BME280;1003;48.002;7.788;2022-11-14T06:46:25;101994.28;;;4.89;100.00
5595;BME280;1003;48.002;7.788;2022-11-14T06:48:54;101998.41;;;4.89;100.00
5595;BME280;1003;48.002;7.788;2022-11-14T06:51:22;101994.72;;;4.82;100.00
5595;BME280;1003;48.002;7.788;2022-11-14T06:53:49;101995.50;;;4.81;100.00
5595;BME280;1003;48.002;7.788;2022-11-14T06:56:19;101985.44;;;4.94;100.00
5595;BME280;1003;48.002;7.788;2022-11-14T06:58:48;101997.31;;;4.98;100.00
5595;BME280;1003;48.002;7.788;2022-11-14T07:01:20;102002.25;;;5.12;100.00
5595;BME280;1003;48.002;7.788;2022-11-14T07:03:49;102007.41;;;5.15;100.00
5595;BME280;1003;48.002;7.788;2022-11-14T07:06:22;101999.06;;;5.14;100.00
5595;BME280;1003;48.002;7.788;2022-11-14T07:08:53;101975.69;;;5.12;100.00
5595;BME280;1003;48.002;7.788;2022-11-14T07:11:24;101987.28;;;5.26;100.00
5595;BME280;1003;48.002;7.788;2022-11-14T07:13:55;101952.72;;;5.33;100.00
5595;BME280;1003;48.002;7.788;2022-11-14T07:16:29;101940.94;;;5.30;100.00
5595;BME280;1003;48.002;7.788;2022-11-14T07:19:09;101915.03;;;5.43;100.00
5595;BME280;1003;48.002;7.788;2022-11-14T07:22:29;101888.19;;;5.53;100.00
5595;BME280;1003;48.002;7.788;2022-11-14T07:25:12;101865.19;;;5.59;100.00
5595;BME280;1003;48.002;7.788;2022-11-14T07:27:57;101832.41;;;5.68;100.00
5595;BME280;1003;48.002;7.788;2022-11-14T07:35:12;101805.81;;;5.85;100.00
5595;BME280;1003;48.002;7.788;2022-11-14T07:37:47;101796.47;;;5.97;100.00
5595;BME280;1003;48.002;7.788;2022-11-14T07:40:20;101775.88;;;6.01;100.00
5595;BME280;1003;48.002;7.788;2022-11-14T07:42:59;101771.91;;;6.04;100.00
5595;BME280;1003;48.002;7.788;2022-11-14T07:45:32;101765.56;;;6.11;100.00
5595;BME280;1003;48.002;7.788;2022-11-14T07:48:02;101739.19;;;6.16;100.00
5595;BME280;1003;48.002;7.788;2022-11-14T07:50:34;101713.38;;;6.16;100.00
5595;BME280;1003;48.002;7.788;2022-11-14T07:53:29;101688.53;;;6.19;100.00
5595;BME280;1003;48.002;7.788;2022-11-14T07:56:04;101680.28;;;6.38;100.00
5595;BME280;1003;48.002;7.788;2022-11-14T07:58:52;101652.16;;;6.42;100.00
5595;BME280;1003;48.002;7.788;2022-11-14T08:01:36;101620.34;;;6.38;100.00
5595;BME280;1003;48.002;7.788;2022-11-14T08:04:12;101605.25;;;6.54;100.00
5595;BME280;1003;48.002;7.788;2022-11-14T08:06:43;101591.75;;;6.68;100.00
5595;BME280;1003;48.002;7.788;2022-11-14T08:09:24;101554.59;;;6.76;100.00
5595;BME280;1003;48.002;7.788;2022-11-14T08:12:27;101495.97;;;6.89;100.00
5595;BME280;1003;48.002;7.788;2022-11-14T08:15:00;101459.00;;;6.81;100.00
5595;BME280;1003;48.002;7.788;2022-11-14T08:17:34;101393.59;;;6.92;100.00
5595;BME280;1003;48.002;7.788;2022-11-14T08:20:10;101345.25;;;7.12;100.00
5595;BME280;1003;48.002;7.788;2022-11-14T08:23:00;101253.59;;;6.92;100.00
5595;BME280;1003;48.002;7.788;2022-11-14T08:25:46;101186.00;;;7.11;100.00
5595;BME280;1003;48.002;7.788;2022-11-14T08:28:15;101106.63;;;7.05;100.00
5595;BME280;1003;48.002;7.788;2022-11-14T08:34:13;101002.66;;;7.12;100.00
5595;BME280;1003;48.002;7.788;2022-11-14T08:36:49;100975.59;;;7.00;100.00
5595;BME280;1003;48.002;7.788;2022-11-14T08:39:42;100961.41;;;7.26;100.00
5595;BME280;1003;48.002;7.788;2022-11-14T08:42:28;100938.66;;;7.17;100.00
5595;BME280;1003;48.002;7.788;2022-11-14T08:45:21;100925.72;;;7.30;100.00
5595;BME280;1003;48.002;7.788;2022-11-14T08:48:49;100926.84;;;7.40;100.00
5595;BME280;1003;48.002;7.788;2022-11-14T08:51:22;100916.22;;;7.47;100.00
5595;BME280;1003;48.002;7.788;2022-11-14T08:53:56;100891.94;;;7.43;100.00
5595;BME280;1003;48.002;7.788;2022-11-14T08:56:49;100886.34;;;7.52;100.00
5595;BME280;1003;48.002;7.788;2022-11-14T08:59:34;100881.28;;;7.79;100.00
5595;BME280;1003;48.002;7.788;2022-11-14T09:02:05;100849.66;;;7.52;100.00
5595;BME280;1003;48.002;7.788;2022-11-14T09:04:43;100832.00;;;7.48;100.00
5595;BME280;1003;48.002;7.788;2022-11-14T09:07:16;100816.06;;;7.44;100.00
5595;BME280;1003;48.002;7.788;2022-11-14T09:09:55;100818.38;;;7.67;100.00
5595;BME280;1003;48.002;7.788;2022-11-14T09:12:39;100807.09;;;7.81;100.00
5595;BME280;1003;48.002;7.788;2022-11-14T09:15:41;100782.25;;;7.58;100.00
5595;BME280;1003;48.002;7.788;2022-11-14T09:18:20;100780.13;;;7.71;100.00
5595;BME280;1003;48.002;7.788;2022-11-14T09:20:48;100766.22;;;7.80;100.00
5595;BME280;1003;48.002;7.788;2022-11-14T09:23:28;100753.91;;;7.89;100.00
5595;BME280;1003;48.002;7.788;2022-11-14T09:26:19;100739.59;;;7.84;100.00
5595;BME280;1003;48.002;7.788;2022-11-14T09:29:06;100725.00;;;8.01;100.00
5595;BME280;1003;48.002;7.788;2022-11-14T09:31:50;100723.56;;;8.10;100.00
5595;BME280;1003;48.002;7.788;2022-11-14T09:34:48;100712.97;;;8.21;100.00
5595;BME280;1003;48.002;7.788;2022-11-14T09:37:21;100702.84;;;8.16;100.00
5595;BME280;1003;48.002;7.788;2022-11-14T09:40:04;100685.13;;;8.08;100.00
5595;BME280;1003;48.002;7.788;2022-11-14T09:43:08;100680.19;;;8.11;100.00
5595;BME280;1003;48.002;7.788;2022-11-14T09:46:01;100679.88;;;7.98;100.00
5595;BME280;1003;48.002;7.788;2022-11-14T09:48:47;100653.16;;;7.98;100.00
5595;BME280;1003;48.002;7.788;2022-11-14T09:51:21;100644.50;;;8.20;100.00
5595;BME280;1003;48.002;7.788;2022-11-14T09:57:20;100637.34;;;8.35;100.00
5595;BME280;1003;48.002;7.788;2022-11-14T09:59:56;100632.19;;;8.29;100.00
5595;BME280;1003;48.002;7.788;2022-11-14T10:02:59;100620.28;;;8.21;100.00
5595;BME280;1003;48.002;7.788;2022-11-14T10:06:29;100598.34;;;8.10;100.00
5595;BME280;1003;48.002;7.788;2022-11-14T10:09:24;100586.28;;;8.30;100.00
5595;BME280;1003;48.002;7.788;2022-11-14T10:12:17;100579.59;;;8.29;100.00
5595;BME280;1003;48.002;7.788;2022-11-14T10:15:29;100568.22;;;8.44;100.00
5595;BME280;1003;48.002;7.788;2022-11-14T10:18:22;100567.56;;;8.52;100.00
5595;BME280;1003;48.002;7.788;2022-11-14T10:20:58;100549.00;;;8.44;100.00
5595;BME280;1003;48.002;7.788;2022-11-14T10:23:38;100533.94;;;8.41;100.00
5595;BME280;1003;48.002;7.788;2022-11-14T10:26:20;100535.31;;;8.67;100.00
5595;BME280;1003;48.002;7.788;2022-11-14T10:29:29;100530.53;;;8.81;100.00
5595;BME280;1003;48.002;7.788;2022-11-14T10:32:17;100536.84;;;9.05;100.00
5595;BME280;1003;48.002;7.788;2022-11-14T10:34:55;100538.81;;;9.24;100.00
5595;BME280;1003;48.002;7.788;2022-11-14T10:37:33;100521.34;;;9.29;100.00
5595;BME280;1003;48.002;7.788;2022-11-14T10:40:15;100526.06;;;9.10;100.00
5595;BME280;1003;48.002;7.788;2022-11-14T10:42:48;100511.03;;;9.13;100.00
5595;BME280;1003;48.002;7.788;2022-11-14T10:45:24;100501.34;;;9.32;100.00
5595;BME280;1003;48.002;7.788;2022-11-14T10:47:58;100502.44;;;9.49;100.00
5595;BME280;1003;48.002;7.788;2022-11-14T10:50:35;100501.44;;;9.39;100.00
5595;BME280;1003;48.002;7.788;2022-11-14T10:53:18;100486.53;;;9.49;100.00
5595;BME280;1003;48.002;7.788;2022-11-14T10:55:49;100476.50;;;9.47;100.00
5595;BME280;1003;48.002;7.788;2022-11-14T10:58:17;100475.66;;;9.48;100.00
5595;BME280;1003;48.002;7.788;2022-11-14T11:00:44;100465.41;;;9.36;100.00
5595;BME280;1003;48.002;7.788;2022-11-14T11:03:11;100474.00;;;9.49;100.00
5595;BME280;1003;48.002;7.788;2022-11-14T11:05:48;100473.50;;;9.72;100.00
5595;BME280;1003;48.002;7.788;2022-11-14T11:08:21;100451.66;;;9.65;100.00
5595;BME280;1003;48.002;7.788;2022-11-14T11:11:12;100469.38;;;9.78;100.00
5595;BME280;1003;48.002;7.788;2022-11-14T11:14:00;100461.94;;;9.84;100.00
5595;BME280;1003;48.002;7.788;2022-11-14T11:16:28;100464.69;;;10.02;100.00
5595;BME280;1003;48.002;7.788;2022-11-14T11:19:17;100467.22;;;10.05;100.00
5595;BME280;1003;48.002;7.788;2022-11-14T11:21:50;100461.56;;;10.18;100.00
5595;BME280;1003;48.002;7.788;2022-11-14T11:24:34;100473.66;;;10.48;100.00
5595;BME280;1003;48.002;7.788;2022-11-14T11:27:22;100476.94;;;10.41;100.00
5595;BME280;1003;48.002;7.788;2022-11-14T11:30:20;100476.38;;;10.70;100.00
5595;BME280;1003;48.002;7.788;2022-11-14T11:32:48;100464.69;;;10.75;100.00
5595;BME280;1003;48.002;7.788;2022-11-14T11:35:16;100479.25;;;11.05;100.00
5595;BME280;1003;48.002;7.788;2022-11-14T11:37:48;100442.00;;;10.69;100.00
5595;BME280;1003;48.002;7.788;2022-11-14T11:40:24;100454.06;;;11.02;100.00
5595;BME280;1003;48.002;7.788;2022-11-14T11:42:59;100445.34;;;10.66;100.00
5595;BME280;1003;48.002;7.788;2022-11-14T11:45:32;100456.41;;;10.82;100.00
5595;BME280;1003;48.002;7.788;2022-11-14T11:48:08;100446.38;;;10.87;100.00
5595;BME280;1003;48.002;7.788;2022-11-14T11:50:40;100448.94;;;10.91;100.00
5595;BME280;1003;48.002;7.788;2022-11-14T11:53:23;100450.75;;;11.06;100.00
5595;BME280;1003;48.002;7.788;2022-11-14T11:55:59;100427.06;;;10.83;100.00
5595;BME280;1003;48.002;7.788;2022-11-14T11:58:32;100427.13;;;10.89;100.00
5595;BME280;1003;48.002;7.788;2022-11-14T12:01:01;100427.13;;;10.87;100.00
5595;BME280;1003;48.002;7.788;2022-11-14T12:03:28;100435.59;;;11.00;100.00
5595;BME280;1003;48.002;7.788;2022-11-14T12:06:09;100439.13;;;11.23;100.00
5595;BME280;1003;48.002;7.788;2022-11-14T12:08:54;100445.16;;;11.42;100.00
5595;BME280;1003;48.002;7.788;2022-11-14T12:11:30;100437.53;;;11.32;100.00
5595;BME280;1003;48.002;7.788;2022-11-14T12:14:52;100427.56;;;11.50;100.00
5595;BME280;1003;48.002;7.788;2022-11-14T12:17:52;100456.94;;;11.51;100.00
5595;BME280;1003;48.002;7.788;2022-11-14T12:20:46;100459.50;;;11.52;100.00
5595;BME280;1003;48.002;7.788;2022-11-14T12:23:43;100468.56;;;11.32;100.00
5595;BME280;1003;48.002;7.788;2022-11-14T12:26:34;100477.91;;;11.47;100.00
5595;BME280;1003;48.002;7.788;2022-11-14T12:29:45;100459.34;;;11.33;100.00
5595;BME280;1003;48.002;7.788;2022-11-14T12:32:18;100438.41;;;11.37;100.00
5595;BME280;1003;48.002;7.788;2022-11-14T12:34:48;100427.50;;;11.36;100.00
5595;BME280;1003;48.002;7.788;2022-11-14T12:37:21;100435.03;;;11.36;100.00
5595;BME280;1003;48.002;7.788;2022-11-14T12:40:01;100422.50;;;11.42;100.00
5595;BME280;1003;48.002;7.788;2022-11-14T12:42:31;100420.84;;;11.49;100.00
5595;BME280;1003;48.002;7.788;2022-11-14T12:44:58;100415.78;;;11.43;100.00
5595;BME280;1003;48.002;7.788;2022-11-14T12:47:27;100408.22;;;11.44;100.00
5595;BME280;1003;48.002;7.788;2022-11-14T12:52:49;100418.34;;;11.49;100.00
5595;BME280;1003;48.002;7.788;2022-11-14T12:55:53;100431.81;;;11.60;100.00
5595;BME280;1003;48.002;7.788;2022-11-14T12:58:49;100431.03;;;11.69;100.00
5595;BME280;1003;48.002;7.788;2022-11-14T13:01:46;100431.88;;;11.68;100.00
5595;BME280;1003;48.002;7.788;2022-11-14T13:04:30;100427.69;;;11.71;100.00
5595;BME280;1003;48.002;7.788;2022-11-14T13:07:23;100429.38;;;11.72;100.00
5595;BME280;1003;48.002;7.788;2022-11-14T13:10:11;100432.75;;;11.74;100.00
5595;BME280;1003;48.002;7.788;2022-11-14T13:12:41;100435.28;;;11.77;100.00
5595;BME280;1003;48.002;7.788;2022-11-14T13:15:30;100426.00;;;11.70;100.00
5595;BME280;1003;48.002;7.788;2022-11-14T13:18:21;100426.84;;;11.72;100.00
5595;BME280;1003;48.002;7.788;2022-11-14T13:21:20;100414.25;;;11.72;100.00
5595;BME280;1003;48.002;7.788;2022-11-14T13:24:05;100420.16;;;11.76;100.00
5595;BME280;1003;48.002;7.788;2022-11-14T13:26:47;100411.84;;;11.86;100.00
5595;BME280;1003;48.002;7.788;2022-11-14T13:29:48;100426.19;;;12.01;100.00
5595;BME280;1003;48.002;7.788;2022-11-14T13:33:01;100445.59;;;12.26;100.00
5595;BME280;1003;48.002;7.788;2022-11-14T13:35:41;100447.31;;;12.40;100.00
5595;BME280;1003;48.002;7.788;2022-11-14T13:38:57;100440.63;;;12.46;100.00
5595;BME280;1003;48.002;7.788;2022-11-14T13:42:07;100434.72;;;12.43;100.00
5595;BME280;1003;48.002;7.788;2022-11-14T13:45:16;100427.97;;;12.37;100.00
5595;BME280;1003;48.002;7.788;2022-11-14T13:48:21;100413.69;;;12.34;100.00
5595;BME280;1003;48.002;7.788;2022-11-14T13:50:59;100401.09;;;12.39;100.00
5595;BME280;1003;48.002;7.788;2022-11-14T13:53:30;100400.28;;;12.45;100.00
5595;BME280;1003;48.002;7.788;2022-11-14T13:56:18;100395.25;;;12.55;100.00
5595;BME280;1003;48.002;7.788;2022-11-14T14:02:37;100377.59;;;12.72;100.00
5595;BME280;1003;48.002;7.788;2022-11-14T14:05:26;100372.53;;;12.91;100.00
5595;BME280;1003;48.002;7.788;2022-11-14T14:08:12;100406.97;;;13.73;100.00
5595;BME280;1003;48.002;7.788;2022-11-14T14:10:50;100378.28;;;13.80;100.00
5595;BME280;1003;48.002;7.788;2022-11-14T14:13:36;100330.34;;;13.64;100.00
5595;BME280;1003;48.002;7.788;2022-11-14T14:16:16;100301.78;;;13.46;100.00
5595;BME280;1003;48.002;7.788;2022-11-14T14:19:05;100268.19;;;13.25;100.00
5595;BME280;1003;48.002;7.788;2022-11-14T14:21:47;100242.13;;;13.05;100.00
5595;BME280;1003;48.002;7.788;2022-11-14T14:24:40;100218.63;;;12.86;100.00
5595;BME280;1003;48.002;7.788;2022-11-14T14:27:23;100218.63;;;12.84;100.00
5595;BME280;1003;48.002;7.788;2022-11-14T14:30:07;100213.59;;;12.83;100.00
5595;BME280;1003;48.002;7.788;2022-11-14T14:32:35;100220.31;;;12.85;100.00
5595;BME280;1003;48.002;7.788;2022-11-14T14:35:21;100211.13;;;12.75;100.00
5595;BME280;1003;48.002;7.788;2022-11-14T14:37:53;100210.25;;;12.69;100.00
5595;BME280;1003;48.002;7.788;2022-11-14T14:40:26;100210.25;;;12.64;100.00
5595;BME280;1003;48.002;7.788;2022-11-14T14:42:54;100207.78;;;12.61;100.00
5595;BME280;1003;48.002;7.788;2022-11-14T14:45:26;100198.53;;;12.51;100.00
5595;BME280;1003;48.002;7.788;2022-11-14T14:48:01;100223.75;;;12.46;100.00
5595;BME280;1003;48.002;7.788;2022-11-14T14:50:36;100219.56;;;12.31;100.00